createdAt,value
2023-05-21T00:01:08.164Z,17.49
2023-05-21T00:03:36.240Z,17.44
2023-05-21T00:06:03.952Z,17.41
2023-05-21T00:08:31.116Z,17.38
2023-05-21T00:10:57.861Z,17.34
2023-05-21T00:13:24.570Z,17.30
2023-05-21T00:15:51.721Z,17.31
2023-05-21T00:18:18.516Z,17.29
2023-05-21T00:20:45.789Z,17.27
2023-05-21T00:23:12.510Z,17.25
2023-05-21T00:25:39.290Z,17.25
2023-05-21T00:28:05.865Z,17.22
2023-05-21T00:30:32.488Z,17.21
2023-05-21T00:33:02.467Z,17.17
2023-05-21T00:35:29.538Z,17.12
2023-05-21T00:37:56.417Z,17.11
2023-05-21T00:40:23.249Z,17.07
2023-05-21T00:42:49.909Z,17.03
2023-05-21T00:45:16.583Z,16.98
2023-05-21T00:47:44.056Z,16.94
2023-05-21T00:50:12.137Z,16.89
2023-05-21T00:52:42.279Z,16.87
2023-05-21T00:55:10.646Z,16.83
2023-05-21T00:57:37.817Z,16.81
2023-05-21T01:00:09.162Z,16.74
2023-05-21T01:02:37.423Z,16.71
2023-05-21T01:05:06.172Z,16.69
2023-05-21T01:07:35.188Z,16.68
2023-05-21T01:10:07.702Z,16.67
2023-05-21T01:12:35.830Z,16.67
2023-05-21T01:15:04.210Z,16.65
2023-05-21T01:17:31.864Z,16.62
2023-05-21T01:19:59.479Z,16.58
2023-05-21T01:22:28.554Z,16.55
2023-05-21T01:24:55.669Z,16.47
2023-05-21T01:27:22.940Z,16.46
2023-05-21T01:29:49.766Z,16.47
2023-05-21T01:32:26.649Z,16.45
2023-05-21T01:35:04.823Z,16.44
2023-05-21T01:37:35.432Z,16.42
2023-05-21T01:40:14.922Z,16.36
2023-05-21T01:42:45.530Z,16.34
2023-05-21T01:45:14.546Z,16.30
2023-05-21T01:47:44.221Z,16.30
2023-05-21T01:50:11.346Z,16.27
2023-05-21T01:52:38.001Z,16.23
2023-05-21T01:55:05.021Z,16.19
2023-05-21T01:57:31.946Z,16.15
2023-05-21T01:59:59.435Z,16.09
2023-05-21T02:02:26.045Z,16.05
2023-05-21T02:04:52.809Z,16.04
2023-05-21T02:07:19.937Z,15.99
2023-05-21T02:09:46.627Z,15.90
2023-05-21T02:12:13.366Z,15.86
2023-05-21T02:14:40.051Z,15.85
2023-05-21T02:17:08.178Z,15.79
2023-05-21T02:19:35.048Z,15.77
2023-05-21T02:22:01.804Z,15.76
2023-05-21T02:24:29.248Z,15.73
2023-05-21T02:26:55.845Z,15.70
2023-05-21T02:29:22.438Z,15.67
2023-05-21T02:31:50.427Z,15.62
2023-05-21T02:34:17.668Z,15.56
2023-05-21T02:36:44.332Z,15.52
2023-05-21T02:39:11.032Z,15.44
2023-05-21T02:41:38.211Z,15.42
2023-05-21T02:44:04.992Z,15.41
2023-05-21T02:46:31.682Z,15.40
2023-05-21T02:48:58.291Z,15.39
2023-05-21T02:51:24.883Z,15.35
2023-05-21T02:53:51.536Z,15.35
2023-05-21T02:56:18.676Z,15.34
2023-05-21T02:58:45.419Z,15.33
2023-05-21T03:01:12.139Z,15.27
2023-05-21T03:03:38.792Z,15.22
2023-05-21T03:06:05.438Z,15.22
2023-05-21T03:08:32.282Z,15.20
2023-05-21T03:10:59.012Z,15.17
2023-05-21T03:13:25.917Z,15.16
2023-05-21T03:15:56.214Z,15.15
2023-05-21T03:18:23.594Z,15.14
2023-05-21T03:20:50.190Z,15.15
2023-05-21T03:23:16.997Z,15.19
2023-05-21T03:25:43.977Z,15.19
2023-05-21T03:28:11.206Z,15.19
2023-05-21T03:30:38.426Z,15.16
2023-05-21T03:33:06.487Z,15.16
2023-05-21T03:35:33.499Z,15.13
2023-05-21T03:38:00.232Z,15.13
2023-05-21T03:40:26.910Z,15.13
2023-05-21T03:42:53.481Z,15.13
2023-05-21T03:45:21.324Z,15.14
2023-05-21T03:47:48.922Z,15.14
2023-05-21T03:50:15.781Z,15.14
2023-05-21T03:52:42.510Z,15.17
2023-05-21T03:55:09.701Z,15.21
2023-05-21T03:57:37.471Z,15.26
2023-05-21T04:00:05.526Z,15.29
2023-05-21T04:02:32.520Z,15.33
2023-05-21T04:04:59.260Z,15.40
2023-05-21T04:07:27.156Z,15.46
2023-05-21T04:09:54.020Z,15.52
2023-05-21T04:12:20.779Z,15.58
2023-05-21T04:14:47.770Z,15.66
2023-05-21T04:17:14.374Z,15.74
2023-05-21T04:19:42.118Z,15.80
2023-05-21T04:22:10.654Z,15.89
2023-05-21T04:24:38.205Z,16.01
2023-05-21T04:27:06.022Z,16.12
2023-05-21T04:29:32.704Z,16.19
2023-05-21T04:31:59.271Z,16.28
2023-05-21T04:34:25.891Z,16.35
2023-05-21T04:36:52.515Z,16.41
2023-05-21T04:39:19.155Z,16.46
2023-05-21T04:41:45.790Z,16.51
2023-05-21T04:44:14.989Z,16.55
2023-05-21T04:46:42.081Z,16.59
2023-05-21T04:49:10.295Z,16.63
2023-05-21T04:51:37.962Z,16.70
2023-05-21T04:54:04.993Z,16.70
2023-05-21T04:56:31.989Z,16.77
2023-05-21T04:58:59.038Z,16.82
2023-05-21T05:01:27.251Z,16.88
2023-05-21T05:03:54.119Z,16.96
2023-05-21T05:06:21.622Z,17.04
2023-05-21T05:08:48.347Z,17.12
2023-05-21T05:11:14.962Z,17.20
2023-05-21T05:13:42.084Z,17.25
2023-05-21T05:16:09.052Z,17.33
2023-05-21T05:18:36.549Z,17.40
2023-05-21T05:21:03.233Z,17.47
2023-05-21T05:23:30.487Z,17.51
2023-05-21T05:25:57.168Z,17.64
2023-05-21T05:28:23.901Z,17.72
2023-05-21T05:30:50.686Z,17.80
2023-05-21T05:33:17.381Z,17.89
2023-05-21T05:35:44.098Z,17.97
2023-05-21T05:38:10.962Z,18.06
2023-05-21T05:40:37.677Z,18.17
2023-05-21T05:43:04.324Z,18.23
2023-05-21T05:45:30.979Z,18.27
2023-05-21T05:47:57.657Z,18.33
2023-05-21T05:50:24.311Z,18.40
2023-05-21T05:52:51.366Z,18.46
2023-05-21T05:55:18.048Z,18.55
2023-05-21T05:57:45.287Z,18.60
2023-05-21T06:00:12.693Z,18.67
2023-05-21T06:02:39.481Z,18.78
2023-05-21T06:05:10.166Z,18.84
2023-05-21T06:07:40.410Z,18.95
2023-05-21T06:10:07.895Z,19.02
2023-05-21T06:12:35.179Z,19.07
2023-05-21T06:15:02.185Z,19.14
2023-05-21T06:17:29.960Z,19.24
2023-05-21T06:19:56.808Z,19.29
2023-05-21T06:22:25.457Z,19.39
2023-05-21T06:24:52.501Z,19.44
2023-05-21T06:27:19.225Z,19.49
2023-05-21T06:29:45.901Z,19.56
2023-05-21T06:32:12.601Z,19.66
2023-05-21T06:34:39.345Z,19.72
2023-05-21T06:37:06.055Z,19.78
2023-05-21T06:39:32.684Z,19.87
2023-05-21T06:41:59.249Z,19.94
2023-05-21T06:44:25.843Z,20.03
2023-05-21T06:46:52.444Z,20.09
2023-05-21T06:49:19.097Z,20.14
2023-05-21T06:51:45.770Z,20.18
2023-05-21T06:54:12.420Z,20.23
2023-05-21T06:56:39.032Z,20.30
2023-05-21T06:59:05.863Z,20.40
2023-05-21T07:01:32.563Z,20.48
2023-05-21T07:03:59.291Z,20.52
2023-05-21T07:06:26.298Z,20.57
2023-05-21T07:08:53.239Z,20.63
2023-05-21T07:11:19.960Z,20.73
2023-05-21T07:13:46.690Z,20.78
2023-05-21T07:16:13.348Z,20.86
2023-05-21T07:18:40.023Z,20.91
2023-05-21T07:21:06.596Z,21.00
2023-05-21T07:23:33.255Z,21.09
2023-05-21T07:25:59.871Z,21.15
2023-05-21T07:28:26.551Z,21.21
2023-05-21T07:30:53.346Z,21.28
2023-05-21T07:33:20.793Z,21.38
2023-05-21T07:35:47.424Z,21.47
2023-05-21T07:38:14.961Z,21.56
2023-05-21T07:40:41.552Z,21.62
2023-05-21T07:43:08.191Z,21.68
2023-05-21T07:45:35.052Z,21.74
2023-05-21T07:48:02.116Z,21.83
2023-05-21T07:50:28.859Z,21.90
2023-05-21T07:52:58.030Z,21.95
2023-05-21T07:55:24.669Z,22.03
2023-05-21T07:57:52.437Z,22.11
2023-05-21T08:00:19.574Z,22.18
2023-05-21T08:02:46.341Z,22.23
2023-05-21T08:05:13.184Z,22.31
2023-05-21T08:07:40.294Z,22.39
2023-05-21T08:10:07.598Z,22.47
2023-05-21T08:12:34.420Z,22.55
2023-05-21T08:15:01.265Z,22.65
2023-05-21T08:17:30.927Z,22.73
2023-05-21T08:19:57.662Z,22.82
2023-05-21T08:22:24.330Z,22.93
2023-05-21T08:24:50.911Z,23.07
2023-05-21T08:27:17.551Z,23.17
2023-05-21T08:29:44.132Z,23.18
2023-05-21T08:32:10.896Z,23.31
2023-05-21T08:34:37.532Z,23.41
2023-05-21T08:37:04.336Z,23.56
2023-05-21T08:39:30.975Z,23.72
2023-05-21T08:42:08.968Z,23.83
2023-05-21T08:44:39.982Z,23.94
2023-05-21T08:47:10.128Z,23.99
2023-05-21T08:49:38.237Z,24.07
2023-05-21T08:52:06.163Z,24.13
2023-05-21T08:54:33.408Z,24.20
2023-05-21T08:57:02.041Z,24.26
2023-05-21T08:59:28.833Z,24.32
2023-05-21T09:01:57.656Z,24.41
2023-05-21T09:04:25.371Z,24.58
2023-05-21T09:06:52.116Z,24.73
2023-05-21T09:09:27.947Z,24.88
2023-05-21T09:11:54.735Z,24.96
2023-05-21T09:14:22.688Z,24.97
2023-05-21T09:16:49.436Z,25.09
2023-05-21T09:19:16.296Z,25.15
2023-05-21T09:21:42.941Z,25.24
2023-05-21T09:24:11.078Z,25.34
2023-05-21T09:26:37.776Z,25.38
2023-05-21T09:29:04.403Z,25.52
2023-05-21T09:31:33.016Z,25.68
2023-05-21T09:33:59.859Z,25.77
2023-05-21T09:36:27.119Z,25.85
2023-05-21T09:38:53.776Z,25.89
2023-05-21T09:41:22.426Z,26.00
2023-05-21T09:43:49.615Z,25.97
2023-05-21T09:46:16.379Z,26.04
2023-05-21T09:48:43.551Z,26.13
2023-05-21T09:51:11.865Z,26.23
2023-05-21T09:53:54.006Z,26.32
2023-05-21T09:56:23.650Z,26.38
2023-05-21T09:59:01.445Z,26.42
2023-05-21T10:01:30.738Z,26.53
2023-05-21T10:04:00.271Z,26.62
2023-05-21T10:06:29.030Z,26.75
2023-05-21T10:08:57.579Z,26.89
2023-05-21T10:11:27.289Z,27.00
2023-05-21T10:14:16.632Z,27.19
2023-05-21T10:16:45.035Z,27.26
2023-05-21T10:19:13.197Z,27.36
2023-05-21T10:21:42.935Z,27.34
2023-05-21T10:24:10.223Z,27.44
2023-05-21T10:26:38.483Z,27.48
2023-05-21T10:29:05.297Z,27.57
2023-05-21T10:31:33.274Z,27.69
2023-05-21T10:34:01.300Z,27.81
2023-05-21T10:36:31.773Z,27.90
2023-05-21T10:39:00.236Z,28.00
2023-05-21T10:41:30.785Z,28.07
2023-05-21T10:44:09.132Z,28.14
2023-05-21T10:46:50.748Z,28.17
2023-05-21T10:49:41.525Z,28.26
2023-05-21T10:52:26.613Z,28.34
2023-05-21T10:55:11.873Z,28.42
2023-05-21T10:58:10.997Z,28.58
2023-05-21T11:00:38.634Z,28.65
2023-05-21T11:03:06.870Z,28.62
2023-05-21T11:05:42.983Z,28.62
2023-05-21T11:08:35.908Z,28.65
2023-05-21T11:11:03.971Z,28.84
2023-05-21T11:13:50.867Z,28.93
2023-05-21T11:16:18.030Z,29.04
2023-05-21T11:18:47.617Z,29.03
2023-05-21T11:21:16.217Z,29.16
2023-05-21T11:23:52.540Z,29.25
2023-05-21T11:26:21.731Z,29.43
2023-05-21T11:29:06.305Z,29.55
2023-05-21T11:31:38.295Z,29.50
2023-05-21T11:34:11.311Z,29.66
2023-05-21T11:36:38.782Z,29.82
2023-05-21T11:39:22.323Z,29.92
2023-05-21T11:42:04.303Z,29.92
2023-05-21T11:44:44.338Z,30.00
2023-05-21T11:47:15.435Z,30.05
2023-05-21T11:49:42.761Z,30.05
2023-05-21T11:52:10.969Z,30.11
2023-05-21T11:54:50.727Z,30.16
2023-05-21T11:57:21.840Z,30.40
2023-05-21T11:59:51.504Z,30.51
2023-05-21T12:02:22.513Z,30.61
2023-05-21T12:04:50.939Z,30.70
2023-05-21T12:07:19.430Z,30.75
2023-05-21T12:09:48.946Z,30.86
2023-05-21T12:12:19.733Z,30.91
2023-05-21T12:14:48.492Z,30.78
2023-05-21T12:17:19.792Z,30.98
2023-05-21T12:19:47.283Z,31.12
2023-05-21T12:22:16.551Z,31.20
2023-05-21T12:24:44.238Z,31.23
2023-05-21T12:27:13.470Z,31.12
2023-05-21T12:29:42.579Z,31.20
2023-05-21T12:32:12.548Z,31.38
2023-05-21T12:34:46.842Z,31.45
2023-05-21T12:37:26.915Z,31.50
2023-05-21T12:40:00.024Z,31.45
2023-05-21T12:42:29.955Z,31.53
2023-05-21T12:44:57.779Z,31.53
2023-05-21T12:47:28.579Z,31.55
2023-05-21T12:50:01.504Z,31.46
2023-05-21T12:52:32.866Z,31.60
2023-05-21T12:55:00.172Z,31.37
2023-05-21T12:57:34.908Z,31.47
2023-05-21T13:00:02.333Z,31.58
2023-05-21T13:02:38.837Z,31.55
2023-05-21T13:05:07.792Z,31.58
2023-05-21T13:07:36.142Z,31.52
2023-05-21T13:10:03.966Z,31.38
2023-05-21T13:12:32.320Z,31.26
2023-05-21T13:15:01.150Z,31.39
2023-05-21T13:17:28.535Z,31.70
2023-05-21T13:20:08.981Z,31.88
2023-05-21T13:22:42.675Z,31.98
2023-05-21T13:25:15.725Z,32.18
2023-05-21T13:27:43.289Z,32.21
2023-05-21T13:30:11.757Z,32.06
2023-05-21T13:32:39.496Z,31.86
2023-05-21T13:35:06.706Z,31.84
2023-05-21T13:37:37.797Z,31.77
2023-05-21T13:40:06.426Z,31.82
2023-05-21T13:42:34.187Z,32.11
2023-05-21T13:45:01.328Z,32.25
2023-05-21T13:47:28.222Z,32.27
2023-05-21T13:49:54.876Z,32.22
2023-05-21T13:52:21.794Z,32.45
2023-05-21T13:54:48.405Z,32.30
2023-05-21T13:57:16.528Z,31.91
2023-05-21T13:59:43.181Z,31.51
2023-05-21T14:02:10.485Z,31.28
2023-05-21T14:04:39.781Z,31.32
2023-05-21T14:07:07.077Z,31.50
2023-05-21T14:09:34.316Z,31.51
2023-05-21T14:12:01.417Z,31.45
2023-05-21T14:14:28.290Z,31.55
2023-05-21T14:16:55.208Z,31.54
2023-05-21T14:19:22.251Z,31.71
2023-05-21T14:21:51.692Z,31.94
2023-05-21T14:24:18.685Z,32.21
2023-05-21T14:26:45.299Z,32.22
2023-05-21T14:29:12.075Z,32.39
2023-05-21T14:31:38.815Z,32.73
2023-05-21T14:34:07.916Z,32.83
2023-05-21T14:36:34.911Z,33.05
2023-05-21T14:39:01.677Z,33.44
2023-05-21T14:41:28.304Z,33.72
2023-05-21T14:43:55.716Z,34.71
2023-05-21T14:46:22.405Z,35.65
2023-05-21T14:48:49.152Z,36.39
2023-05-21T14:51:16.073Z,37.10
2023-05-21T14:53:42.713Z,37.43
2023-05-21T14:56:09.382Z,37.81
2023-05-21T14:58:36.056Z,38.23
2023-05-21T15:01:04.284Z,38.38
2023-05-21T15:03:31.155Z,38.53
2023-05-21T15:05:58.654Z,38.07
2023-05-21T15:08:25.535Z,36.55
2023-05-21T15:10:52.492Z,35.10
2023-05-21T15:13:19.157Z,34.23
2023-05-21T15:15:46.122Z,35.06
2023-05-21T15:18:12.999Z,35.81
2023-05-21T15:20:39.749Z,35.26
2023-05-21T15:23:16.772Z,34.60
2023-05-21T15:25:45.210Z,33.99
2023-05-21T15:28:12.372Z,33.55
2023-05-21T15:30:39.281Z,33.53
2023-05-21T15:33:06.289Z,33.55
2023-05-21T15:35:33.171Z,33.39
2023-05-21T15:37:59.996Z,32.84
2023-05-21T15:40:27.327Z,32.89
2023-05-21T15:42:54.240Z,32.66
2023-05-21T15:45:21.208Z,32.28
2023-05-21T15:47:47.997Z,32.20
2023-05-21T15:50:14.794Z,31.85
2023-05-21T15:52:42.628Z,31.83
2023-05-21T15:55:09.780Z,31.53
2023-05-21T15:57:36.442Z,31.57
2023-05-21T16:00:03.920Z,31.43
2023-05-21T16:02:30.653Z,32.12
2023-05-21T16:04:57.314Z,32.84
2023-05-21T16:07:24.572Z,33.48
2023-05-21T16:09:51.317Z,33.74
2023-05-21T16:12:18.153Z,34.13
2023-05-21T16:14:44.846Z,33.83
2023-05-21T16:17:11.585Z,34.01
2023-05-21T16:19:39.051Z,34.25
2023-05-21T16:22:05.904Z,34.35
2023-05-21T16:24:32.966Z,34.39
2023-05-21T16:26:59.605Z,34.56
2023-05-21T16:29:26.274Z,34.37
2023-05-21T16:31:52.950Z,34.03
2023-05-21T16:34:19.714Z,33.94
2023-05-21T16:36:46.360Z,34.07
2023-05-21T16:39:13.139Z,33.97
2023-05-21T16:41:39.756Z,33.91
2023-05-21T16:44:06.344Z,33.61
2023-05-21T16:46:33.093Z,33.37
2023-05-21T16:48:59.789Z,33.11
2023-05-21T16:51:26.422Z,33.16
2023-05-21T16:53:53.056Z,32.71
2023-05-21T16:56:19.699Z,32.46
2023-05-21T16:58:46.283Z,32.09
2023-05-21T17:01:13.299Z,31.77
2023-05-21T17:03:43.071Z,31.44
2023-05-21T17:06:10.157Z,31.13
2023-05-21T17:08:36.952Z,30.88
2023-05-21T17:11:03.667Z,30.33
2023-05-21T17:13:30.357Z,29.99
2023-05-21T17:15:57.009Z,29.67
2023-05-21T17:18:23.658Z,29.06
2023-05-21T17:20:50.411Z,28.73
2023-05-21T17:23:17.429Z,28.38
2023-05-21T17:25:44.234Z,28.05
2023-05-21T17:28:11.419Z,27.95
2023-05-21T17:30:38.863Z,27.77
2023-05-21T17:33:07.755Z,27.59
2023-05-21T17:35:34.802Z,27.59
2023-05-21T17:38:01.605Z,27.51
2023-05-21T17:40:28.235Z,27.13
2023-05-21T17:42:54.920Z,27.08
2023-05-21T17:45:21.573Z,26.98
2023-05-21T17:47:48.297Z,26.87
2023-05-21T17:50:15.149Z,26.56
2023-05-21T17:52:41.845Z,26.43
2023-05-21T17:55:08.879Z,26.05
2023-05-21T17:57:36.073Z,25.90
2023-05-21T18:00:04.954Z,25.57
2023-05-21T18:02:31.802Z,25.48
2023-05-21T18:04:58.682Z,25.26
2023-05-21T18:07:25.622Z,25.05
2023-05-21T18:09:52.249Z,24.83
2023-05-21T18:12:18.954Z,24.66
2023-05-21T18:14:45.936Z,24.59
2023-05-21T18:17:13.103Z,24.34
2023-05-21T18:19:39.824Z,23.98
2023-05-21T18:22:06.491Z,23.80
2023-05-21T18:24:33.287Z,23.52
2023-05-21T18:26:59.942Z,23.38
2023-05-21T18:29:26.591Z,23.16
2023-05-21T18:31:53.948Z,22.83
2023-05-21T18:34:20.716Z,22.67
2023-05-21T18:36:48.190Z,22.42
2023-05-21T18:39:14.988Z,22.40
2023-05-21T18:41:41.780Z,22.29
2023-05-21T18:44:08.546Z,22.10
2023-05-21T18:46:35.255Z,21.81
2023-05-21T18:49:01.957Z,21.57
2023-05-21T18:51:28.586Z,21.55
2023-05-21T18:53:55.193Z,21.64
2023-05-21T18:56:21.987Z,21.54
2023-05-21T18:58:48.718Z,21.21
2023-05-21T19:01:16.151Z,20.90
2023-05-21T19:03:42.811Z,20.79
2023-05-21T19:06:09.669Z,20.82
2023-05-21T19:08:36.317Z,20.61
2023-05-21T19:11:03.072Z,20.55
2023-05-21T19:13:29.763Z,20.66
2023-05-21T19:15:58.327Z,20.27
2023-05-21T19:18:31.621Z,20.14
2023-05-21T19:21:00.262Z,20.10
2023-05-21T19:23:27.003Z,19.67
2023-05-21T19:25:53.648Z,19.48
2023-05-21T19:28:21.402Z,19.28
2023-05-21T19:30:50.381Z,19.05
2023-05-21T19:33:17.331Z,18.90
2023-05-21T19:35:44.154Z,18.85
2023-05-21T19:38:10.971Z,18.77
2023-05-21T19:40:38.257Z,18.69
2023-05-21T19:43:05.197Z,18.62
2023-05-21T19:45:31.837Z,18.60
2023-05-21T19:47:59.764Z,18.74
2023-05-21T19:50:28.561Z,18.79
2023-05-21T19:52:57.238Z,18.83
2023-05-21T19:55:24.717Z,18.87
2023-05-21T19:57:51.684Z,18.76
2023-05-21T20:00:18.997Z,18.51
2023-05-21T20:02:46.315Z,18.47
2023-05-21T20:05:14.538Z,18.54
2023-05-21T20:07:41.454Z,18.57
2023-05-21T20:10:08.821Z,18.49
2023-05-21T20:12:35.826Z,18.46
2023-05-21T20:15:03.420Z,18.38
2023-05-21T20:17:30.636Z,18.35
2023-05-21T20:19:59.091Z,18.28
2023-05-21T20:22:25.952Z,18.19
2023-05-21T20:24:52.971Z,18.08
2023-05-21T20:27:20.088Z,18.00
2023-05-21T20:29:46.832Z,17.85
2023-05-21T20:32:16.036Z,17.73
2023-05-21T20:34:58.368Z,17.72
2023-05-21T20:37:32.219Z,17.63
2023-05-21T20:39:58.861Z,17.66
2023-05-21T20:42:28.480Z,17.75
2023-05-21T20:44:55.473Z,17.82
2023-05-21T20:47:23.406Z,17.87
2023-05-21T20:49:53.669Z,17.91
2023-05-21T20:52:20.794Z,17.87
2023-05-21T20:54:48.934Z,17.77
2023-05-21T20:57:16.039Z,17.75
2023-05-21T20:59:43.148Z,17.76
2023-05-21T21:02:12.534Z,17.79
2023-05-21T21:04:39.782Z,17.79
2023-05-21T21:07:08.062Z,17.67
2023-05-21T21:09:34.709Z,17.48
2023-05-21T21:12:11.349Z,17.44
2023-05-21T21:14:41.659Z,17.48
2023-05-21T21:17:08.264Z,17.47
2023-05-21T21:19:35.444Z,17.43
2023-05-21T21:22:02.203Z,17.36
2023-05-21T21:24:28.779Z,17.27
2023-05-21T21:26:55.433Z,17.23
2023-05-21T21:29:22.124Z,17.21
2023-05-21T21:31:48.809Z,17.18
2023-05-21T21:34:15.507Z,17.25
2023-05-21T21:36:42.279Z,17.26
2023-05-21T21:39:09.004Z,17.24
2023-05-21T21:41:36.354Z,17.15
2023-05-21T21:44:03.024Z,17.16
2023-05-21T21:46:30.077Z,17.15
2023-05-21T21:48:56.808Z,17.19
2023-05-21T21:51:23.726Z,17.24
2023-05-21T21:53:50.663Z,17.24
2023-05-21T21:56:17.387Z,17.16
2023-05-21T21:58:44.161Z,17.14
2023-05-21T22:01:10.770Z,17.22
2023-05-21T22:03:37.677Z,17.28
2023-05-21T22:06:04.452Z,17.39
2023-05-21T22:08:31.055Z,17.47
2023-05-21T22:10:57.722Z,17.48
2023-05-21T22:13:26.990Z,17.50
2023-05-21T22:15:55.127Z,17.51
2023-05-21T22:18:38.797Z,17.57
2023-05-21T22:21:09.755Z,17.64
2023-05-21T22:23:37.816Z,17.69
2023-05-21T22:26:04.662Z,17.71
2023-05-21T22:28:31.295Z,17.69
2023-05-21T22:30:58.869Z,17.66
2023-05-21T22:33:26.729Z,17.69
2023-05-21T22:35:54.241Z,17.74
2023-05-21T22:38:20.974Z,17.75
2023-05-21T22:40:47.683Z,17.80
2023-05-21T22:43:14.347Z,17.79
2023-05-21T22:45:41.011Z,17.82
2023-05-21T22:48:09.148Z,17.80
2023-05-21T22:50:36.463Z,17.84
2023-05-21T22:53:03.484Z,17.89
2023-05-21T22:55:30.129Z,17.90
2023-05-21T22:57:56.800Z,17.88
2023-05-21T23:00:23.510Z,17.88
2023-05-21T23:02:53.092Z,17.87
2023-05-21T23:05:20.831Z,17.85
2023-05-21T23:07:47.529Z,17.81
2023-05-21T23:10:14.173Z,17.76
2023-05-21T23:12:41.369Z,17.71
2023-05-21T23:15:09.935Z,17.68
2023-05-21T23:17:37.484Z,17.67
2023-05-21T23:20:05.637Z,17.64
2023-05-21T23:22:32.384Z,17.62
2023-05-21T23:24:59.038Z,17.61
2023-05-21T23:27:25.783Z,17.58
2023-05-21T23:29:52.369Z,17.55
2023-05-21T23:32:19.222Z,17.50
2023-05-21T23:34:45.838Z,17.49
2023-05-21T23:37:12.650Z,17.48
2023-05-21T23:39:39.311Z,17.48
2023-05-21T23:42:06.363Z,17.45
2023-05-21T23:44:33.214Z,17.36
2023-05-21T23:46:59.913Z,17.35
2023-05-21T23:49:26.496Z,17.30
2023-05-21T23:51:53.275Z,17.26
2023-05-21T23:54:19.903Z,17.26
2023-05-21T23:56:46.728Z,17.22
2023-05-21T23:59:13.954Z,17.18
